Time;durP1;ratioP1;P1;durP2;ratioP2;P2;SDS_P1;SDS_P2;PMS_P1;PMS_P2;Temp;Humidity;BMP_temperature;BMP_pressure;BME280_temperature;BME280_humidity;BME280_pressure;Samples;Min_cycle;Max_cycle;Signal;HPM_P1;HPM_P2
2023/08/18 00:00:19;;;;;;;4.22;3.28;;;;;;;;;;4995786;28;20117;-50
2023/08/18 00:02:45;;;;;;;5.20;3.20;;;;;;;;;;4995172;28;20039;-51
2023/08/18 00:05:10;;;;;;;4.82;3.33;;;;;;;;;;4994006;28;20496;-46
2023/08/18 00:07:36;;;;;;;5.57;3.38;;;;;;;;;;4994950;28;20034;-46
2023/08/18 00:10:02;;;;;;;4.65;3.03;;;;;;;;;;4995364;28;20121;-46
2023/08/18 00:12:28;;;;;;;5.32;3.28;;;;;;;;;;4994572;28;20022;-44
2023/08/18 00:14:53;;;;;;;7.40;3.30;;;;;;;;;;4993680;28;20026;-44
2023/08/18 00:17:19;;;;;;;5.60;3.70;;;;;;;;;;4994896;28;20080;-44
2023/08/18 00:19:44;;;;;;;3.90;3.55;;;;;;;;;;4996002;28;20026;-47
2023/08/18 00:22:10;;;;;;;5.68;3.65;;;;;;;;;;4993477;28;20053;-44
2023/08/18 00:24:36;;;;;;;6.13;3.85;;;;;;;;;;4994015;28;20030;-45
2023/08/18 00:27:02;;;;;;;5.60;3.35;;;;;;;;;;4994741;28;20039;-47
2023/08/18 00:29:28;;;;;;;5.72;3.38;;;;;;;;;;4994846;28;20476;-45
2023/08/18 00:31:53;;;;;;;7.32;3.03;;;;;;;;;;4994604;28;20035;-45
2023/08/18 00:34:18;;;;;;;5.35;3.25;;;;;;;;;;4991998;28;20057;-44
2023/08/18 00:36:44;;;;;;;3.83;3.30;;;;;;;;;;4992591;28;20046;-44
2023/08/18 00:39:09;;;;;;;3.83;3.40;;;;;;;;;;4994545;28;20026;-45
2023/08/18 00:41:35;;;;;;;7.63;3.30;;;;;;;;;;4999982;28;20043;-44
2023/08/18 00:44:00;;;;;;;6.45;3.47;;;;;;;;;;4997282;28;20041;-44
2023/08/18 00:46:27;;;;;;;8.02;4.10;;;;;;;;;;4991109;28;20125;-45
2023/08/18 00:48:52;;;;;;;12.88;4.03;;;;;;;;;;4998038;28;20033;-44
2023/08/18 00:51:17;;;;;;;7.10;3.40;;;;;;;;;;4997692;28;20050;-43
2023/08/18 00:53:44;;;;;;;3.55;3.15;;;;;;;;;;4981178;28;20026;-44
2023/08/18 00:56:10;;;;;;;3.42;3.10;;;;;;;;;;5028505;28;20038;-43
2023/08/18 00:58:36;;;;;;;4.65;3.42;;;;;;;;;;4999636;28;20825;-47
2023/08/18 01:01:03;;;;;;;3.40;3.10;;;;;;;;;;4980315;28;20039;-46
2023/08/18 01:03:29;;;;;;;6.15;3.33;;;;;;;;;;4997034;28;20133;-45
2023/08/18 01:05:55;;;;;;;4.82;3.10;;;;;;;;;;4995812;28;20269;-47
2023/08/18 01:08:20;;;;;;;4.97;3.58;;;;;;;;;;4996434;28;20618;-44
2023/08/18 01:10:57;;;;;;;5.05;3.35;;;;;;;;;;4984056;28;20046;-46
2023/08/18 01:13:52;;;;;;;8.52;3.40;;;;;;;;;;4997057;28;20015;-44
2023/08/18 01:16:22;;;;;;;6.47;3.45;;;;;;;;;;4987266;28;20069;-48
2023/08/18 01:18:50;;;;;;;6.03;4.13;;;;;;;;;;4995587;28;20030;-43
2023/08/18 01:21:17;;;;;;;4.13;3.83;;;;;;;;;;4996796;28;20113;-46
2023/08/18 01:23:43;;;;;;;4.32;3.38;;;;;;;;;;4995783;28;20062;-46
2023/08/18 01:26:08;;;;;;;10.52;4.07;;;;;;;;;;4996461;28;20042;-44
2023/08/18 01:28:34;;;;;;;5.45;3.63;;;;;;;;;;4997273;28;20372;-45
2023/08/18 01:31:08;;;;;;;6.28;3.72;;;;;;;;;;4998014;28;20073;-48
2023/08/18 01:34:12;;;;;;;7.05;3.58;;;;;;;;;;4995504;28;20053;-43
2023/08/18 01:36:43;;;;;;;6.22;3.05;;;;;;;;;;4955194;28;20046;-43
2023/08/18 01:39:11;;;;;;;9.27;3.25;;;;;;;;;;4992566;28;20038;-43
2023/08/18 01:41:37;;;;;;;4.90;3.47;;;;;;;;;;4996483;28;20386;-45
2023/08/18 01:44:06;;;;;;;3.67;3.25;;;;;;;;;;4996511;28;20113;-43
2023/08/18 01:46:31;;;;;;;3.60;3.30;;;;;;;;;;4990691;28;20038;-44
2023/08/18 01:48:57;;;;;;;4.80;3.30;;;;;;;;;;4998191;28;20508;-44
2023/08/18 01:51:22;;;;;;;10.25;3.47;;;;;;;;;;4995633;28;20097;-46
2023/08/18 01:53:48;;;;;;;5.80;3.35;;;;;;;;;;4996896;28;20042;-44
2023/08/18 01:56:13;;;;;;;3.80;3.42;;;;;;;;;;4994613;28;20042;-44
2023/08/18 01:58:38;;;;;;;5.03;3.40;;;;;;;;;;4996819;28;20026;-44
2023/08/18 02:01:04;;;;;;;6.85;3.22;;;;;;;;;;5030418;28;20089;-44
2023/08/18 02:03:29;;;;;;;4.43;3.78;;;;;;;;;;4996579;28;20033;-46
2023/08/18 02:05:58;;;;;;;8.90;3.78;;;;;;;;;;4994109;28;20435;-47
2023/08/18 02:08:24;;;;;;;6.47;3.10;;;;;;;;;;4996319;28;20034;-44
2023/08/18 02:10:50;;;;;;;3.35;3.05;;;;;;;;;;5001040;28;20086;-43
2023/08/18 02:13:16;;;;;;;4.55;3.10;;;;;;;;;;4995221;28;20030;-44
2023/08/18 02:15:45;;;;;;;8.05;3.45;;;;;;;;;;4995445;28;20060;-46
2023/08/18 02:18:10;;;;;;;5.28;3.30;;;;;;;;;;4978036;28;20389;-45
2023/08/18 02:20:38;;;;;;;6.18;3.15;;;;;;;;;;4995808;28;20052;-43
2023/08/18 02:23:04;;;;;;;4.53;3.20;;;;;;;;;;4995601;28;20026;-44
2023/08/18 02:25:29;;;;;;;3.97;3.58;;;;;;;;;;4997413;28;20077;-47
2023/08/18 02:27:55;;;;;;;4.05;3.38;;;;;;;;;;4995190;28;20389;-44
2023/08/18 02:30:20;;;;;;;3.72;3.35;;;;;;;;;;4995662;28;20142;-46
2023/08/18 02:32:45;;;;;;;3.58;2.80;;;;;;;;;;4994663;28;20108;-45
2023/08/18 02:35:11;;;;;;;4.20;3.35;;;;;;;;;;4993568;28;20117;-44
2023/08/18 02:37:36;;;;;;;7.47;3.22;;;;;;;;;;4996143;28;20033;-43
2023/08/18 02:40:05;;;;;;;4.50;3.42;;;;;;;;;;5000066;28;20037;-44
2023/08/18 02:42:30;;;;;;;7.20;3.47;;;;;;;;;;4987352;28;20021;-44
2023/08/18 02:44:55;;;;;;;6.57;3.08;;;;;;;;;;4994018;28;20026;-43
2023/08/18 02:47:21;;;;;;;7.22;3.30;;;;;;;;;;5007737;28;20041;-45
2023/08/18 02:49:47;;;;;;;4.20;3.38;;;;;;;;;;4989508;28;20030;-44
2023/08/18 02:52:13;;;;;;;3.42;3.13;;;;;;;;;;4994708;28;20076;-44
2023/08/18 02:54:38;;;;;;;5.78;3.30;;;;;;;;;;5028445;28;20492;-46
2023/08/18 02:57:03;;;;;;;3.58;3.17;;;;;;;;;;4995313;28;20076;-45
2023/08/18 02:59:29;;;;;;;3.50;3.20;;;;;;;;;;4994798;28;20112;-45
2023/08/18 03:01:54;;;;;;;3.45;3.10;;;;;;;;;;4977384;28;20066;-43
2023/08/18 03:04:20;;;;;;;7.95;3.42;;;;;;;;;;4994735;28;20425;-45
2023/08/18 03:06:45;;;;;;;6.47;3.10;;;;;;;;;;4993899;28;20045;-44
2023/08/18 03:09:10;;;;;;;4.30;3.25;;;;;;;;;;4994095;28;20057;-44
2023/08/18 03:11:36;;;;;;;3.97;2.97;;;;;;;;;;4962452;28;20023;-44
2023/08/18 03:14:02;;;;;;;7.00;3.20;;;;;;;;;;4995703;28;20156;-46
2023/08/18 03:16:27;;;;;;;4.88;3.28;;;;;;;;;;4994087;28;20038;-44
2023/08/18 03:18:53;;;;;;;4.82;3.08;;;;;;;;;;4978886;28;20026;-43
2023/08/18 03:21:18;;;;;;;5.28;3.30;;;;;;;;;;4994243;28;20037;-44
2023/08/18 03:23:44;;;;;;;4.57;3.17;;;;;;;;;;4994448;28;20034;-45
2023/08/18 03:26:10;;;;;;;5.15;3.30;;;;;;;;;;5000759;28;20082;-43
2023/08/18 03:28:36;;;;;;;3.53;3.10;;;;;;;;;;4989190;28;20033;-46
2023/08/18 03:31:03;;;;;;;3.40;3.00;;;;;;;;;;4993069;28;20038;-44
2023/08/18 03:33:29;;;;;;;3.13;2.63;;;;;;;;;;4995538;28;20077;-44
2023/08/18 03:35:55;;;;;;;3.78;3.33;;;;;;;;;;4994539;28;20046;-43
2023/08/18 03:38:21;;;;;;;7.53;3.05;;;;;;;;;;4992944;28;20022;-46
2023/08/18 03:40:49;;;;;;;6.15;3.65;;;;;;;;;;4995893;28;20092;-44
2023/08/18 03:43:15;;;;;;;3.75;3.08;;;;;;;;;;4979155;28;20058;-47
2023/08/18 03:45:40;;;;;;;3.90;3.05;;;;;;;;;;4977316;28;20034;-44
2023/08/18 03:48:06;;;;;;;3.25;2.92;;;;;;;;;;4995625;28;20026;-46
2023/08/18 03:50:31;;;;;;;4.25;3.20;;;;;;;;;;4988894;28;20034;-43
2023/08/18 03:52:57;;;;;;;6.00;3.03;;;;;;;;;;4995849;28;20065;-44
2023/08/18 03:55:23;;;;;;;6.00;3.33;;;;;;;;;;4994374;28;20035;-44
2023/08/18 03:57:49;;;;;;;3.40;3.10;;;;;;;;;;4994311;28;20505;-46
2023/08/18 04:00:14;;;;;;;5.25;3.50;;;;;;;;;;4996156;28;20121;-43
2023/08/18 04:02:40;;;;;;;6.10;3.20;;;;;;;;;;4994783;28;20072;-44
2023/08/18 04:05:06;;;;;;;10.02;3.00;;;;;;;;;;4993449;28;20039;-44
2023/08/18 04:07:31;;;;;;;3.78;3.42;;;;;;;;;;4991228;28;20062;-43
2023/08/18 04:09:57;;;;;;;9.88;3.85;;;;;;;;;;4994482;28;20472;-43
2023/08/18 04:12:23;;;;;;;7.07;3.05;;;;;;;;;;4994333;28;20539;-44
2023/08/18 04:14:48;;;;;;;5.72;2.90;;;;;;;;;;4982484;28;20046;-44
2023/08/18 04:17:14;;;;;;;5.65;3.38;;;;;;;;;;4994898;28;20448;-45
2023/08/18 04:19:39;;;;;;;6.57;3.42;;;;;;;;;;5010373;28;20026;-42
2023/08/18 04:22:05;;;;;;;5.65;3.80;;;;;;;;;;4991716;28;20068;-45
2023/08/18 04:24:30;;;;;;;3.42;3.13;;;;;;;;;;4999920;28;20038;-43
2023/08/18 04:26:59;;;;;;;4.32;3.10;;;;;;;;;;4980304;28;20042;-43
2023/08/18 04:29:28;;;;;;;3.60;2.90;;;;;;;;;;4994973;28;20034;-44
2023/08/18 04:31:53;;;;;;;4.13;3.50;;;;;;;;;;4982331;28;20046;-45
2023/08/18 04:34:19;;;;;;;10.38;3.05;;;;;;;;;;4997414;28;20473;-44
2023/08/18 04:36:44;;;;;;;6.10;3.13;;;;;;;;;;4997343;28;20042;-45
2023/08/18 04:39:11;;;;;;;5.45;3.00;;;;;;;;;;4981267;28;20033;-44
2023/08/18 04:41:36;;;;;;;5.07;3.00;;;;;;;;;;4997567;28;20416;-45
2023/08/18 04:44:02;;;;;;;6.93;3.35;;;;;;;;;;4998071;28;20031;-46
2023/08/18 04:46:28;;;;;;;5.82;2.95;;;;;;;;;;4995475;28;20038;-45
2023/08/18 04:48:54;;;;;;;3.15;2.85;;;;;;;;;;4996603;28;20031;-45
2023/08/18 04:51:19;;;;;;;3.72;2.88;;;;;;;;;;4981332;28;20026;-44
2023/08/18 04:53:45;;;;;;;3.88;2.78;;;;;;;;;;4998168;28;20032;-43
2023/08/18 04:56:10;;;;;;;7.05;3.50;;;;;;;;;;5012758;28;20037;-43
2023/08/18 04:58:36;;;;;;;10.68;3.38;;;;;;;;;;4981356;28;20058;-43
2023/08/18 05:01:02;;;;;;;11.20;3.47;;;;;;;;;;4996645;28;20038;-44
2023/08/18 05:03:28;;;;;;;8.00;3.17;;;;;;;;;;4999235;28;20464;-46
2023/08/18 05:06:12;;;;;;;7.10;3.30;;;;;;;;;;4998667;28;20122;-43
2023/08/18 05:08:40;;;;;;;8.65;3.85;;;;;;;;;;4996373;28;20432;-46
2023/08/18 05:11:07;;;;;;;9.40;3.30;;;;;;;;;;4998453;28;20401;-46
2023/08/18 05:13:33;;;;;;;7.43;3.22;;;;;;;;;;4999213;28;20148;-43
2023/08/18 05:16:08;;;;;;;10.18;3.30;;;;;;;;;;4989677;28;20050;-44
2023/08/18 05:18:35;;;;;;;3.28;3.05;;;;;;;;;;5002401;28;20137;-45
2023/08/18 05:21:02;;;;;;;7.47;3.17;;;;;;;;;;4992030;28;20141;-45
2023/08/18 05:23:30;;;;;;;5.88;3.28;;;;;;;;;;4997225;28;20023;-46
2023/08/18 05:25:56;;;;;;;4.75;3.05;;;;;;;;;;4996088;28;20108;-43
2023/08/18 05:28:23;;;;;;;9.23;3.45;;;;;;;;;;4996466;28;20030;-46
2023/08/18 05:30:49;;;;;;;4.30;3.22;;;;;;;;;;4995160;28;20045;-43
2023/08/18 05:33:15;;;;;;;4.10;3.00;;;;;;;;;;4991860;28;20126;-45
2023/08/18 05:35:41;;;;;;;5.47;3.28;;;;;;;;;;4998220;28;20058;-45
2023/08/18 05:38:12;;;;;;;5.97;3.83;;;;;;;;;;4996845;28;20023;-43
2023/08/18 05:40:46;;;;;;;8.02;3.17;;;;;;;;;;4995584;28;21309;-46
2023/08/18 05:43:14;;;;;;;4.47;3.20;;;;;;;;;;5027112;28;20033;-45
2023/08/18 05:45:39;;;;;;;4.13;3.38;;;;;;;;;;4997996;28;20038;-44
2023/08/18 05:48:05;;;;;;;6.13;3.05;;;;;;;;;;4988647;28;20252;-46
2023/08/18 05:50:31;;;;;;;5.03;3.28;;;;;;;;;;4977370;28;20412;-44
2023/08/18 05:52:57;;;;;;;6.82;3.20;;;;;;;;;;4996893;28;20076;-45
2023/08/18 05:55:24;;;;;;;4.18;3.28;;;;;;;;;;4998677;28;20116;-48
2023/08/18 05:57:49;;;;;;;6.43;3.28;;;;;;;;;;4996768;28;20452;-45
2023/08/18 06:00:15;;;;;;;5.40;3.10;;;;;;;;;;4995565;28;20038;-43
2023/08/18 06:02:42;;;;;;;8.23;3.38;;;;;;;;;;4997070;28;20077;-43
2023/08/18 06:05:10;;;;;;;6.57;2.97;;;;;;;;;;4994759;28;20038;-43
2023/08/18 06:07:36;;;;;;;3.72;3.25;;;;;;;;;;4996190;28;20034;-43
2023/08/18 06:10:05;;;;;;;7.70;3.00;;;;;;;;;;4995934;28;20125;-43
2023/08/18 06:12:30;;;;;;;3.80;2.90;;;;;;;;;;4979131;28;20038;-44
2023/08/18 06:14:55;;;;;;;3.55;2.90;;;;;;;;;;4979107;28;20031;-44
2023/08/18 06:17:21;;;;;;;3.83;2.78;;;;;;;;;;4994303;28;20484;-46
2023/08/18 06:19:47;;;;;;;4.20;2.70;;;;;;;;;;4994909;28;20030;-44
2023/08/18 06:22:12;;;;;;;4.32;2.72;;;;;;;;;;5007747;28;20030;-43
2023/08/18 06:24:39;;;;;;;13.20;2.97;;;;;;;;;;4992869;28;20038;-45
2023/08/18 06:27:05;;;;;;;8.25;4.35;;;;;;;;;;4997665;28;20074;-46
2023/08/18 06:29:30;;;;;;;14.55;3.28;;;;;;;;;;4979373;28;20488;-45
2023/08/18 06:31:56;;;;;;;4.88;3.40;;;;;;;;;;4996162;28;20066;-46
2023/08/18 06:34:21;;;;;;;5.30;3.00;;;;;;;;;;4996359;28;20022;-45
2023/08/18 06:36:46;;;;;;;5.45;2.83;;;;;;;;;;4994055;28;20508;-43
2023/08/18 06:39:12;;;;;;;3.72;2.88;;;;;;;;;;4990372;28;20389;-47
2023/08/18 06:41:39;;;;;;;4.32;2.83;;;;;;;;;;5000044;28;20053;-43
2023/08/18 06:44:05;;;;;;;3.50;3.00;;;;;;;;;;4993679;28;20073;-45
2023/08/18 06:46:30;;;;;;;3.85;2.97;;;;;;;;;;4995416;28;20129;-51
2023/08/18 06:48:56;;;;;;;6.90;3.03;;;;;;;;;;4994289;28;20030;-46
2023/08/18 06:51:21;;;;;;;5.65;2.97;;;;;;;;;;4995419;28;20592;-45
2023/08/18 06:53:46;;;;;;;4.20;2.88;;;;;;;;;;4986663;28;20114;-43
2023/08/18 06:56:12;;;;;;;6.65;3.05;;;;;;;;;;4987400;28;20046;-43
2023/08/18 06:58:38;;;;;;;5.32;3.15;;;;;;;;;;4987876;28;20039;-43
2023/08/18 07:01:03;;;;;;;12.20;3.83;;;;;;;;;;4957174;28;20042;-45
2023/08/18 07:03:29;;;;;;;7.63;3.78;;;;;;;;;;4987970;28;20034;-44
2023/08/18 07:05:56;;;;;;;3.28;2.60;;;;;;;;;;4995979;28;20045;-50
2023/08/18 07:08:22;;;;;;;9.63;3.95;;;;;;;;;;4994938;28;20022;-46
2023/08/18 07:10:48;;;;;;;5.40;3.35;;;;;;;;;;4995285;28;20042;-44
2023/08/18 07:13:13;;;;;;;7.63;3.20;;;;;;;;;;4972319;28;20022;-43
2023/08/18 07:15:38;;;;;;;14.57;3.17;;;;;;;;;;4989533;28;20046;-46
2023/08/18 07:18:04;;;;;;;4.45;2.67;;;;;;;;;;4975126;28;20023;-45
2023/08/18 07:20:30;;;;;;;4.72;2.80;;;;;;;;;;4988828;28;20047;-46
2023/08/18 07:22:55;;;;;;;6.15;2.90;;;;;;;;;;4989668;28;20033;-45
2023/08/18 07:25:22;;;;;;;3.47;3.17;;;;;;;;;;4968335;28;20043;-47
2023/08/18 07:27:47;;;;;;;3.40;2.70;;;;;;;;;;4984982;28;20026;-45
2023/08/18 07:30:13;;;;;;;3.40;2.40;;;;;;;;;;4992291;28;20049;-45
2023/08/18 07:32:39;;;;;;;6.60;2.80;;;;;;;;;;4988086;28;20077;-44
2023/08/18 07:35:08;;;;;;;3.83;2.50;;;;;;;;;;4988676;28;20464;-44
2023/08/18 07:37:35;;;;;;;6.05;2.85;;;;;;;;;;4992399;28;20022;-46
2023/08/18 07:40:00;;;;;;;2.95;2.50;;;;;;;;;;4994803;28;20035;-45
2023/08/18 07:42:26;;;;;;;3.72;2.50;;;;;;;;;;4988550;28;20081;-46
2023/08/18 07:44:51;;;;;;;3.60;2.53;;;;;;;;;;4992042;28;20045;-43
2023/08/18 07:47:16;;;;;;;2.85;2.65;;;;;;;;;;5000444;28;20034;-45
2023/08/18 07:49:42;;;;;;;5.18;2.50;;;;;;;;;;4968430;28;20030;-45
2023/08/18 07:52:07;;;;;;;3.53;2.90;;;;;;;;;;4992145;28;20068;-44
2023/08/18 07:54:33;;;;;;;6.63;2.63;;;;;;;;;;4976504;28;20069;-44
2023/08/18 07:56:58;;;;;;;5.63;2.47;;;;;;;;;;4976833;28;20042;-45
2023/08/18 07:59:24;;;;;;;7.05;2.85;;;;;;;;;;4987857;28;20109;-47
2023/08/18 08:01:49;;;;;;;6.95;3.33;;;;;;;;;;4988097;28;20045;-47
2023/08/18 08:04:15;;;;;;;9.40;3.38;;;;;;;;;;4992095;28;20042;-45
2023/08/18 08:06:40;;;;;;;9.30;3.58;;;;;;;;;;4990817;28;20042;-44
2023/08/18 08:09:06;;;;;;;6.95;3.05;;;;;;;;;;4983656;28;20035;-45
2023/08/18 08:11:31;;;;;;;11.57;3.13;;;;;;;;;;4988918;28;20035;-45
2023/08/18 08:13:57;;;;;;;8.18;3.63;;;;;;;;;;4988403;28;20034;-45
2023/08/18 08:16:23;;;;;;;5.85;3.20;;;;;;;;;;4990249;28;20458;-45
2023/08/18 08:18:48;;;;;;;8.48;3.55;;;;;;;;;;4990875;28;20357;-44
2023/08/18 08:21:13;;;;;;;13.43;3.22;;;;;;;;;;4988330;28;20038;-43
2023/08/18 08:23:39;;;;;;;5.82;3.15;;;;;;;;;;4971731;28;20026;-45
2023/08/18 08:26:04;;;;;;;4.47;3.22;;;;;;;;;;4986043;28;20576;-43
2023/08/18 08:28:30;;;;;;;5.78;3.05;;;;;;;;;;4986934;28;20472;-44
2023/08/18 08:30:55;;;;;;;10.35;3.33;;;;;;;;;;4969873;28;20047;-43
2023/08/18 08:33:21;;;;;;;4.70;2.97;;;;;;;;;;4986590;28;20030;-44
2023/08/18 08:35:47;;;;;;;7.10;3.20;;;;;;;;;;4949477;28;20062;-43
2023/08/18 08:38:12;;;;;;;11.82;2.90;;;;;;;;;;4985729;28;20031;-43
2023/08/18 08:40:40;;;;;;;5.68;2.78;;;;;;;;;;4966602;28;20543;-45
2023/08/18 08:43:06;;;;;;;3.78;2.72;;;;;;;;;;4982378;28;20034;-46
2023/08/18 08:45:32;;;;;;;8.40;2.95;;;;;;;;;;4983344;28;20039;-47
2023/08/18 08:48:04;;;;;;;6.15;3.05;;;;;;;;;;4986955;28;20106;-42
2023/08/18 08:50:32;;;;;;;6.68;3.05;;;;;;;;;;4984726;28;20049;-43
2023/08/18 08:53:00;;;;;;;6.97;3.35;;;;;;;;;;4986725;28;20426;-44
2023/08/18 08:55:31;;;;;;;2.90;2.28;;;;;;;;;;4985509;28;20122;-43
2023/08/18 08:57:57;;;;;;;2.67;2.47;;;;;;;;;;4985762;28;20061;-45
2023/08/18 09:00:24;;;;;;;4.43;2.55;;;;;;;;;;4983104;28;20038;-44
2023/08/18 09:02:50;;;;;;;5.32;2.22;;;;;;;;;;4981059;28;20704;-47
2023/08/18 09:05:15;;;;;;;4.55;2.50;;;;;;;;;;4977270;28;20046;-45
2023/08/18 09:07:41;;;;;;;3.30;2.38;;;;;;;;;;4979366;28;20037;-46
2023/08/18 09:10:07;;;;;;;3.22;2.20;;;;;;;;;;5016566;28;20038;-43
2023/08/18 09:12:33;;;;;;;7.10;2.28;;;;;;;;;;4981305;28;20560;-45
2023/08/18 09:14:58;;;;;;;5.00;2.47;;;;;;;;;;5000455;28;20121;-42
2023/08/18 09:17:26;;;;;;;4.45;2.60;;;;;;;;;;4988205;28;20026;-42
2023/08/18 09:19:56;;;;;;;3.00;2.30;;;;;;;;;;4989054;28;20034;-45
2023/08/18 09:22:22;;;;;;;2.83;2.35;;;;;;;;;;4988935;28;20046;-45
2023/08/18 09:24:51;;;;;;;7.45;2.45;;;;;;;;;;4989735;28;20030;-43
2023/08/18 09:27:17;;;;;;;6.25;3.03;;;;;;;;;;4992083;28;20026;-42
2023/08/18 09:29:43;;;;;;;3.45;2.45;;;;;;;;;;4990388;28;20035;-46
2023/08/18 09:32:09;;;;;;;6.70;2.60;;;;;;;;;;4991150;28;20038;-46
2023/08/18 09:34:47;;;;;;;6.95;2.58;;;;;;;;;;4985284;28;20022;-43
2023/08/18 09:37:15;;;;;;;5.38;2.58;;;;;;;;;;4985135;28;20048;-45
2023/08/18 09:39:41;;;;;;;7.95;2.50;;;;;;;;;;4966231;28;20115;-44
2023/08/18 09:42:07;;;;;;;6.13;2.40;;;;;;;;;;4974161;28;20557;-43
2023/08/18 09:44:33;;;;;;;5.35;2.42;;;;;;;;;;4990963;28;20037;-48
2023/08/18 09:46:59;;;;;;;6.07;2.75;;;;;;;;;;4974332;28;20042;-44
2023/08/18 09:49:25;;;;;;;3.00;2.40;;;;;;;;;;4990482;28;20050;-45
2023/08/18 09:52:05;;;;;;;11.98;2.53;;;;;;;;;;5028552;28;20114;-49
2023/08/18 09:54:37;;;;;;;7.18;2.70;;;;;;;;;;4996065;28;21213;-46
2023/08/18 09:57:07;;;;;;;10.20;3.00;;;;;;;;;;4997975;28;20038;-46
2023/08/18 09:59:40;;;;;;;5.83;3.37;;;;;;;;;;4993957;28;20088;-45
2023/08/18 10:02:07;;;;;;;7.80;3.47;;;;;;;;;;4990463;28;20054;-45
2023/08/18 10:04:39;;;;;;;5.53;2.67;;;;;;;;;;5028979;28;20499;-44
2023/08/18 10:07:04;;;;;;;;;;;;;;;;;;4996555;28;20089;-48
2023/08/18 10:09:33;;;;;;;3.72;2.70;;;;;;;;;;5008350;28;19953;-48
2023/08/18 10:12:02;;;;;;;7.57;2.78;;;;;;;;;;4994911;28;20396;-48
2023/08/18 10:14:30;;;;;;;9.23;2.78;;;;;;;;;;4980615;28;20361;-45
2023/08/18 10:16:58;;;;;;;3.00;2.75;;;;;;;;;;4989972;28;20038;-48
2023/08/18 10:19:48;;;;;;;6.90;2.88;;;;;;;;;;5009514;28;20025;-44
2023/08/18 10:22:15;;;;;;;7.17;2.93;;;;;;;;;;4993776;28;20444;-45
2023/08/18 10:24:42;;;;;;;10.07;2.85;;;;;;;;;;4977125;28;20076;-46
2023/08/18 10:27:10;;;;;;;3.05;2.38;;;;;;;;;;4995398;28;20057;-44
2023/08/18 10:29:36;;;;;;;6.25;2.45;;;;;;;;;;4998429;28;20496;-44
2023/08/18 10:32:08;;;;;;;6.50;2.88;;;;;;;;;;4995174;28;20101;-45
2023/08/18 10:34:36;;;;;;;3.15;2.15;;;;;;;;;;4995412;28;20068;-46
2023/08/18 10:37:03;;;;;;;5.45;2.80;;;;;;;;;;4995696;28;20137;-44
2023/08/18 10:39:36;;;;;;;5.95;2.47;;;;;;;;;;4994659;28;20030;-47
2023/08/18 10:42:15;;;;;;;7.68;2.50;;;;;;;;;;5010044;28;20054;-48
2023/08/18 10:44:59;;;;;;;4.25;2.22;;;;;;;;;;5023037;28;20029;-45
2023/08/18 10:47:34;;;;;;;6.05;2.42;;;;;;;;;;5000117;28;20034;-46
2023/08/18 10:50:06;;;;;;;2.85;2.28;;;;;;;;;;4994007;28;20053;-45
2023/08/18 10:52:32;;;;;;;3.38;2.30;;;;;;;;;;4995266;28;20089;-46
2023/08/18 10:54:59;;;;;;;5.15;2.17;;;;;;;;;;4992336;28;20026;-48
2023/08/18 10:57:24;;;;;;;7.10;2.45;;;;;;;;;;4996801;28;20086;-44
2023/08/18 10:59:50;;;;;;;6.55;2.45;;;;;;;;;;4993406;28;20567;-49
2023/08/18 11:02:16;;;;;;;2.38;1.98;;;;;;;;;;4990245;28;20034;-45
2023/08/18 11:04:42;;;;;;;5.10;2.10;;;;;;;;;;4992749;28;20034;-49
2023/08/18 11:07:08;;;;;;;6.60;1.85;;;;;;;;;;4992775;28;20034;-43
2023/08/18 11:09:36;;;;;;;3.80;1.77;;;;;;;;;;4992067;28;20064;-46
2023/08/18 11:12:02;;;;;;;4.28;2.20;;;;;;;;;;5002175;28;20510;-44
2023/08/18 11:14:27;;;;;;;6.28;2.10;;;;;;;;;;4990071;28;20150;-45
2023/08/18 11:16:52;;;;;;;8.63;2.10;;;;;;;;;;4990961;28;20038;-47
2023/08/18 11:19:18;;;;;;;3.28;1.98;;;;;;;;;;4987014;28;20113;-46
2023/08/18 11:21:43;;;;;;;4.35;2.05;;;;;;;;;;4990773;28;20039;-47
2023/08/18 11:24:09;;;;;;;3.78;2.00;;;;;;;;;;4990217;28;20030;-48
2023/08/18 11:26:39;;;;;;;7.03;2.13;;;;;;;;;;5004778;28;20098;-48
2023/08/18 11:29:05;;;;;;;6.10;1.77;;;;;;;;;;4995536;28;20034;-46
2023/08/18 11:31:31;;;;;;;6.40;1.90;;;;;;;;;;4993141;28;20117;-48
2023/08/18 11:33:58;;;;;;;2.38;1.75;;;;;;;;;;4995833;28;20065;-45
2023/08/18 11:36:28;;;;;;;4.95;3.00;;;;;;;;;;4990171;28;20042;-48
2023/08/18 11:39:05;;;;;;;4.77;3.00;;;;;;;;;;4994413;28;20117;-46
2023/08/18 11:41:41;;;;;;;3.35;2.00;;;;;;;;;;4991462;28;20070;-47
2023/08/18 11:44:08;;;;;;;5.07;1.90;;;;;;;;;;4996138;28;20034;-44
2023/08/18 11:46:35;;;;;;;8.10;2.00;;;;;;;;;;4991503;28;20513;-47
2023/08/18 11:49:02;;;;;;;5.35;2.00;;;;;;;;;;4993952;28;20560;-46
2023/08/18 11:51:28;;;;;;;7.85;1.98;;;;;;;;;;4976385;28;20034;-48
2023/08/18 11:53:54;;;;;;;2.42;1.98;;;;;;;;;;4990292;28;20030;-44
2023/08/18 11:56:19;;;;;;;3.22;2.13;;;;;;;;;;4994860;28;20479;-46
2023/08/18 11:58:45;;;;;;;8.13;2.13;;;;;;;;;;5000299;28;20037;-45
2023/08/18 12:01:11;;;;;;;5.82;2.20;;;;;;;;;;4994504;28;20066;-48
2023/08/18 12:03:37;;;;;;;5.13;2.00;;;;;;;;;;4978005;28;20062;-44
2023/08/18 12:06:02;;;;;;;4.75;1.90;;;;;;;;;;4991769;28;20057;-43
2023/08/18 12:08:28;;;;;;;3.17;1.70;;;;;;;;;;4992873;28;20038;-44
2023/08/18 12:10:54;;;;;;;2.00;1.50;;;;;;;;;;4995526;28;20089;-47
2023/08/18 12:13:21;;;;;;;6.10;1.88;;;;;;;;;;4993787;28;20032;-46
2023/08/18 12:15:46;;;;;;;3.13;1.70;;;;;;;;;;4993285;28;20042;-49
2023/08/18 12:18:12;;;;;;;10.48;2.30;;;;;;;;;;4993879;28;20029;-48
2023/08/18 12:20:37;;;;;;;3.25;1.88;;;;;;;;;;4995163;28;20049;-48
2023/08/18 12:23:03;;;;;;;2.90;1.90;;;;;;;;;;5024764;28;20023;-46
2023/08/18 12:25:29;;;;;;;2.90;1.88;;;;;;;;;;4987816;28;20035;-45
2023/08/18 12:27:55;;;;;;;4.53;2.20;;;;;;;;;;4973546;28;20037;-50
2023/08/18 12:30:21;;;;;;;6.32;2.20;;;;;;;;;;4993847;28;20042;-46
2023/08/18 12:32:50;;;;;;;4.55;1.70;;;;;;;;;;4995977;28;20468;-44
2023/08/18 12:35:16;;;;;;;2.90;2.10;;;;;;;;;;4992872;28;20031;-48
2023/08/18 12:37:42;;;;;;;3.10;2.10;;;;;;;;;;4993488;28;20408;-46
2023/08/18 12:40:10;;;;;;;7.90;2.05;;;;;;;;;;4985034;28;20034;-44
2023/08/18 12:42:39;;;;;;;5.53;2.22;;;;;;;;;;4990165;28;20026;-45
2023/08/18 12:45:06;;;;;;;8.38;2.65;;;;;;;;;;4986403;28;20042;-46
2023/08/18 12:47:32;;;;;;;5.15;1.73;;;;;;;;;;4994292;28;20060;-44
2023/08/18 12:49:58;;;;;;;4.90;2.13;;;;;;;;;;4994688;28;20480;-47
2023/08/18 12:52:24;;;;;;;6.32;1.98;;;;;;;;;;4981224;28;20416;-46
2023/08/18 12:54:49;;;;;;;5.82;2.22;;;;;;;;;;5010325;28;20023;-45
2023/08/18 12:57:15;;;;;;;4.45;2.97;;;;;;;;;;4998492;28;20080;-46
2023/08/18 12:59:40;;;;;;;7.50;2.20;;;;;;;;;;4998444;28;20034;-43
2023/08/18 13:02:06;;;;;;;3.97;2.17;;;;;;;;;;4996314;28;20022;-49
2023/08/18 13:04:32;;;;;;;5.75;2.28;;;;;;;;;;5013952;28;20093;-44
2023/08/18 13:06:59;;;;;;;3.58;2.10;;;;;;;;;;4996241;28;20041;-44
2023/08/18 13:09:26;;;;;;;4.22;1.70;;;;;;;;;;4992735;28;20034;-45
2023/08/18 13:11:53;;;;;;;5.05;2.00;;;;;;;;;;4998373;28;20035;-44
2023/08/18 13:14:18;;;;;;;3.40;1.92;;;;;;;;;;4998575;28;20026;-50
2023/08/18 13:16:44;;;;;;;6.68;2.53;;;;;;;;;;4979422;28;20054;-50
2023/08/18 13:19:09;;;;;;;7.03;2.53;;;;;;;;;;4994961;28;20038;-46
2023/08/18 13:21:35;;;;;;;5.30;2.00;;;;;;;;;;4998709;28;20042;-44
2023/08/18 13:24:00;;;;;;;8.65;2.60;;;;;;;;;;4998144;28;20030;-44
2023/08/18 13:26:26;;;;;;;10.15;2.20;;;;;;;;;;4998311;28;20058;-48
2023/08/18 13:28:51;;;;;;;3.92;2.25;;;;;;;;;;4997049;28;20046;-43
2023/08/18 13:31:17;;;;;;;8.85;2.40;;;;;;;;;;5012833;28;20495;-47
2023/08/18 13:33:43;;;;;;;6.65;2.35;;;;;;;;;;4996276;28;20382;-46
2023/08/18 13:36:09;;;;;;;4.43;2.03;;;;;;;;;;4998967;28;20054;-46
2023/08/18 13:38:34;;;;;;;6.90;2.47;;;;;;;;;;4997134;28;20069;-45
2023/08/18 13:40:59;;;;;;;4.13;2.05;;;;;;;;;;4997895;28;20072;-47
2023/08/18 13:43:25;;;;;;;6.30;2.40;;;;;;;;;;4978624;28;20391;-44
2023/08/18 13:45:51;;;;;;;6.55;2.30;;;;;;;;;;4999639;28;20651;-44
2023/08/18 13:48:16;;;;;;;5.82;2.40;;;;;;;;;;4998218;28;20473;-44
2023/08/18 13:50:42;;;;;;;3.03;2.00;;;;;;;;;;4997312;28;20033;-44
2023/08/18 13:53:11;;;;;;;7.68;1.98;;;;;;;;;;4987804;28;20084;-44
2023/08/18 13:55:46;;;;;;;5.25;2.30;;;;;;;;;;4996713;28;20034;-44
2023/08/18 13:58:11;;;;;;;8.18;2.10;;;;;;;;;;4981319;28;20026;-44
2023/08/18 14:00:38;;;;;;;3.65;2.03;;;;;;;;;;4997905;28;20069;-44
2023/08/18 14:03:04;;;;;;;3.03;2.20;;;;;;;;;;4998434;28;20026;-45
2023/08/18 14:05:29;;;;;;;8.93;2.35;;;;;;;;;;4988789;28;20054;-45
2023/08/18 14:07:55;;;;;;;10.60;2.30;;;;;;;;;;4994079;28;20030;-46
2023/08/18 14:10:20;;;;;;;3.50;2.20;;;;;;;;;;4980296;28;20492;-43
2023/08/18 14:12:47;;;;;;;4.40;2.00;;;;;;;;;;4995898;28;20077;-43
2023/08/18 14:15:13;;;;;;;4.38;2.10;;;;;;;;;;4994853;28;20045;-44
2023/08/18 14:17:44;;;;;;;5.95;2.20;;;;;;;;;;4999905;28;20861;-48
2023/08/18 14:20:14;;;;;;;3.17;1.90;;;;;;;;;;5002657;28;20018;-45
2023/08/18 14:22:42;;;;;;;4.30;2.00;;;;;;;;;;4997152;28;20073;-45
2023/08/18 14:25:08;;;;;;;5.05;2.30;;;;;;;;;;4998559;28;20026;-44
2023/08/18 14:27:34;;;;;;;7.82;2.35;;;;;;;;;;5030126;28;20030;-45
2023/08/18 14:29:59;;;;;;;3.03;2.15;;;;;;;;;;4996358;28;20411;-47
2023/08/18 14:32:25;;;;;;;12.65;2.20;;;;;;;;;;4997203;28;20014;-46
2023/08/18 14:34:55;;;;;;;5.15;2.70;;;;;;;;;;4995773;28;20492;-45
2023/08/18 14:37:25;;;;;;;11.70;2.33;;;;;;;;;;4994532;28;20034;-46
2023/08/18 14:39:51;;;;;;;10.82;2.15;;;;;;;;;;5023265;28;20109;-44